< < Back
Terminal Aerodrome Forecast


Current Version              Previous Versions:   1  2  3  4  5  6  7  8  9  

Terminal Aerodrome Forecast

925
FTUS42 KGSP 271134
TAFCLT
TAF
KCLT 271134Z 2712/2812 01011G19KT P6SM -SHRA OVC020
      TEMPO 2712/2716 5SM SHRA BR SCT008
     FM271700 01009G17KT P6SM OVC020
     FM272100 35004KT P6SM OVC040
     FM280500 33006KT P6SM BKN060
     FM280900 33007KT P6SM SCT250=

Latest METAR

077
SAUS70 KWBC 280000 RRJ
MTRCLT
METAR KCLT 272352Z 00000KT 10SM -RA FEW035 SCT055 OVC070 08/03 A2980 RMK
AO2 RAB51 SLP090 P0000 60000 T00830028 10094 20083 53009


USA.gov is the U.S. government's official web portal to all federal, state and local government web resources and services.